WetterOnline ( https://www.wetteronline.ch )

Wetter aktuell Würzburg

Aktuelles Wetter: Würzburg (272m)

6-stündlich | Neueste Meldungen
Ortszeit Temperatur Wetter
Fr, 06.12. 19:00 2.9° C leichter Regen
Fr, 06.12. 13:00 3.2° C bedeckt
Fr, 06.12. 7:00 -1.5° C wolkig
Fr, 06.12. 1:00 -4.7° C Nebel
Do, 05.12. 19:00 -2.2° C wolkenlos
Do, 05.12. 13:00 1.9° C wolkenlos
Do, 05.12. 7:00 -4.6° C fast wolkenlos
Do, 05.12. 1:00 -1.7° C wolkig
Ortszeit Temperatur Wetter
Fr, 06.12. 21:00 4.8° C leichter Regen
Fr, 06.12. 20:40 5.0° C leichter Regen
Fr, 06.12. 20:30 4.1° C leichter Regen
Fr, 06.12. 20:20 4.1° C leichter Regen
Fr, 06.12. 20:10 4.0° C leichter Regen
Fr, 06.12. 20:00 4.5° C leichter Regen
Fr, 06.12. 19:50 4.5° C leichter Regen
Fr, 06.12. 19:30 3.7° C bewölkt
Fr, 06.12. 19:00 2.9° C leichter Regen
Ortszeit Relative Feuchte Sichtweite
Fr, 06.12. 19:00 80% 13 km
Fr, 06.12. 13:00 79% 12 km
Fr, 06.12. 7:00 94% 3.9 km
Fr, 06.12. 1:00 93% <100 m
Do, 05.12. 19:00 91% 1.4 km
Do, 05.12. 13:00 75% 10 km
Do, 05.12. 7:00 93% 1.8 km
Do, 05.12. 1:00 93% 6 km
Ortszeit Relative Feuchte Sichtweite
Fr, 06.12. 21:00 77% 10 km
Fr, 06.12. 20:40 75% -
Fr, 06.12. 20:30 80% 9 km
Fr, 06.12. 20:20 80% -
Fr, 06.12. 20:10 80% -
Fr, 06.12. 20:00 77% 13 km
Fr, 06.12. 19:50 77% -
Fr, 06.12. 19:30 80% 16 km
Fr, 06.12. 19:00 80% 13 km
Ortszeit Niederschlagsmenge Niederschlagsart
Fr, 06.12. 19:00 0.1 l/m2 in 12 Std. Regen
Fr, 06.12. 13:00 0.0 l/m2 in 6 Std. -
Fr, 06.12. 7:00 0.0 l/m2 in 12 Std. -
Fr, 06.12. 1:00 0.0 l/m2 in 6 Std. -
Do, 05.12. 19:00 0.0 l/m2 in 12 Std. -
Do, 05.12. 13:00 0.0 l/m2 in 6 Std. -
Do, 05.12. 7:00 0.0 l/m2 in 12 Std. -
Do, 05.12. 1:00 0.0 l/m2 in 6 Std. -
Ortszeit Niederschlagsmenge Niederschlagsart
Fr, 06.12. 21:00 0.4 l/m2 in 1 Std. Regen
Fr, 06.12. 20:40 keine Meldung -
Fr, 06.12. 20:30 0.1 l/m2 in 1 Std. -
Fr, 06.12. 20:20 keine Meldung -
Fr, 06.12. 20:10 keine Meldung -
Fr, 06.12. 20:00 0.1 l/m2 in 1 Std. Regen
Fr, 06.12. 19:50 keine Meldung -
Fr, 06.12. 19:30 0.1 l/m2 in 1 Std. Schneeregen
Fr, 06.12. 19:00 0.1 l/m2 in 1 Std. Regen
Ortszeit Stärke Spitze Richtung
km/h Bft. km/h Grad Sektor
Fr, 06.12. 19:00 9 2 33 210° SW
Fr, 06.12. 13:00 13 3 28 240° SW
Fr, 06.12. 7:00 11 2 18 210° SW
Fr, 06.12. 1:00 4 1 11 180° S
Do, 05.12. 19:00 2 1 13 40° NO
Do, 05.12. 13:00 7 2 14 220° SW
Do, 05.12. 7:00 7 2 11 170° S
Do, 05.12. 1:00 4 1 11 110° O
Ortszeit Stärke Spitze Richtung
km/h Bft. km/h Grad Sektor
Fr, 06.12. 21:00 25 4 36 250° W
Fr, 06.12. 20:40 22 4 - 250° W
Fr, 06.12. 20:30 13 3 22 230° SW
Fr, 06.12. 20:20 13 3 - 230° SW
Fr, 06.12. 20:10 15 3 - 230° SW
Fr, 06.12. 20:00 17 3 26 250° W
Fr, 06.12. 19:50 17 3 - 250° W
Fr, 06.12. 19:30 13 3 19 230° SW
Fr, 06.12. 19:00 9 2 30 210° SW
Ortszeit Untergrenze Bedeckung Gattung
total tief tief mittel hoch
Fr, 06.12. 19:00 1500 m 8/8 5/8 - - -
Fr, 06.12. 13:00 450 m 8/8 8/8 - - -
Fr, 06.12. 7:00 210 m 5/8 5/8 - - -
Fr, 06.12. 1:00 <30 m 4/8 0/8 - - -
Do, 05.12. 19:00 - 0/8 0/8 - - -
Do, 05.12. 13:00 - 0/8 0/8 - - -
Do, 05.12. 7:00 <30 m 1/8 0/8 - - -
Do, 05.12. 1:00 10500 m 7/8 0/8 - - -
Ortszeit Bedeckungsgrad in Achtel und Wolkenuntergrenze
Fr, 06.12. 21:00 7(1500m) 8(1800m)
Fr, 06.12. 20:40 8(1500m)
Fr, 06.12. 20:30 8(1800m) 8(1800m)
Fr, 06.12. 20:20 8(1800m)
Fr, 06.12. 20:10 2(1500m) 8(1800m)
Fr, 06.12. 20:00 7(1500m) 8(2100m)
Fr, 06.12. 19:50 7(1500m) 8(2100m)
Fr, 06.12. 19:30 7(1500m) 7(2400m)
Fr, 06.12. 19:00 5(1500m) 8(3600m) 8(4200m)
Ortszeit Luftdruck NN (hPa) Tendenz (hPa in 3 Std.)
Fr, 06.12. 19:00 1015 - 1,1
Fr, 06.12. 13:00 1019 - 1,9
Fr, 06.12. 7:00 1021 - 0,8
Fr, 06.12. 1:00 1023 - 1,0
Do, 05.12. 19:00 1025 + 0,2
Do, 05.12. 13:00 1024 - 0,5
Do, 05.12. 7:00 1024 0,0
Do, 05.12. 1:00 1023 - 0,7
Ortszeit Luftdruck NN (hPa) Tendenz (hPa in 3 Std.)
Fr, 06.12. 21:00 1014 - 1,2
Fr, 06.12. 20:40 1014 keine Meldung
Fr, 06.12. 20:30 1014 - 1,2
Fr, 06.12. 20:20 1014 keine Meldung
Fr, 06.12. 20:10 1015 keine Meldung
Fr, 06.12. 20:00 1015 - 1,1
Fr, 06.12. 19:50 1015 keine Meldung
Fr, 06.12. 19:30 1015 - 0,9
Fr, 06.12. 19:00 1015 - 1,1
Ortszeit Schneehöhe (cm)
Fr, 06.12. 19:00 0
Fr, 06.12. 13:00 0
Fr, 06.12. 7:00 0
Fr, 06.12. 1:00 0
Do, 05.12. 19:00 0
Do, 05.12. 13:00 0
Do, 05.12. 7:00 0
Do, 05.12. 1:00 0
Ortszeit Schneehöhe (cm)
Fr, 06.12. 21:00 0
Fr, 06.12. 20:40 0
Fr, 06.12. 20:30 0
Fr, 06.12. 20:20 0
Fr, 06.12. 20:10 0
Fr, 06.12. 20:00 0
Fr, 06.12. 19:50 0
Fr, 06.12. 19:30 0
Fr, 06.12. 19:00 0
Link zu dieser Seite / Seite empfehlen

Das Wetter in ...